Freeport, New York
Current Conditions -  °F | °C
As of 10:51 AM on Wednesday 22 Oct 2014 (Local Time) from KJFK Reporting Station
Light Rain Light Rain  
Wind Chill: 55°   Ceiling: 1600
Heat Index: 55°   Visibility: 10mi
Dew Point: 51°   Wind: 15mph
Humidity: 86%   Direction: 20°NNE
Pressure: 29.92"   Gusts: NA
Location:  40.66°N, 73.59°W
Report Text: KJFK 221451Z 02013KT 10SM -RA BKN016 OVC090 13/11 A2992 RMK AO2 SLP131 P0002 60024 T01280106 50004
Loading
Personal Weather Stations






























Interactive Weather Map
Tropical Storm Tracking
New forecast layout! Learn more

10-Day Weather Forecast

Advertisements
Track Severe Weather on mobile